createdAt,value
2023-03-29T00:09:45.265Z,62.44
2023-03-29T00:25:03.480Z,63.29
2023-03-29T00:40:10.145Z,63.21
2023-03-29T00:55:35.831Z,63.36
2023-03-29T01:10:43.091Z,63.96
2023-03-29T01:26:04.467Z,62.98
2023-03-29T01:41:07.316Z,63.73
2023-03-29T01:56:22.432Z,63.37
2023-03-29T02:11:28.766Z,63.30
2023-03-29T02:26:31.913Z,63.65
2023-03-29T02:41:37.533Z,64.27
2023-03-29T02:56:57.622Z,64.66
2023-03-29T03:12:00.527Z,64.71
2023-03-29T03:27:03.169Z,65.12
2023-03-29T03:42:08.412Z,65.28
2023-03-29T03:57:25.980Z,65.81
2023-03-29T04:12:28.926Z,66.17
2023-03-29T04:27:32.195Z,66.55
2023-03-29T04:42:51.071Z,66.43
2023-03-29T04:57:54.934Z,65.76
2023-03-29T05:13:12.317Z,65.56
2023-03-29T05:28:16.160Z,65.90
2023-03-29T05:43:19.174Z,66.50
2023-03-29T05:58:22.634Z,66.70
2023-03-29T06:13:26.824Z,66.09
2023-03-29T06:28:30.265Z,65.84
2023-03-29T06:43:34.127Z,65.72
2023-03-29T06:58:51.356Z,64.61
2023-03-29T07:13:55.173Z,64.65
2023-03-29T07:28:58.424Z,64.81
2023-03-29T07:44:08.509Z,63.51
2023-03-29T07:59:11.359Z,62.09
2023-03-29T08:14:28.387Z,61.45
2023-03-29T08:29:31.235Z,60.87
2023-03-29T08:44:49.858Z,59.31
2023-03-29T09:00:17.393Z,58.56
2023-03-29T09:15:54.132Z,55.71
2023-03-29T09:31:20.953Z,56.07
2023-03-29T09:46:38.274Z,55.28
2023-03-29T10:02:11.464Z,53.08
2023-03-29T10:17:28.762Z,52.96
2023-03-29T10:32:35.753Z,51.18
2023-03-29T10:47:44.166Z,51.37
2023-03-29T11:02:58.601Z,51.04
2023-03-29T11:18:19.235Z,50.00
2023-03-29T11:34:13.863Z,49.87
2023-03-29T11:49:36.536Z,49.44
2023-03-29T12:04:51.414Z,49.07
2023-03-29T12:20:31.030Z,49.25
2023-03-29T12:35:58.560Z,48.20
2023-03-29T12:51:12.497Z,47.98
2023-03-29T13:06:46.082Z,47.57
2023-03-29T13:22:30.652Z,46.66
2023-03-29T13:37:46.758Z,47.14
2023-03-29T13:53:10.877Z,46.97
2023-03-29T14:08:26.548Z,47.30
2023-03-29T14:23:33.338Z,46.15
2023-03-29T14:38:37.503Z,46.81
2023-03-29T14:53:42.690Z,46.27
2023-03-29T15:09:01.456Z,46.37
2023-03-29T15:24:33.321Z,47.01
2023-03-29T15:39:43.891Z,48.05
2023-03-29T15:54:46.805Z,49.72
2023-03-29T16:09:50.415Z,50.64
2023-03-29T16:24:53.273Z,51.20
2023-03-29T16:39:56.649Z,51.88
2023-03-29T16:54:59.725Z,51.38
2023-03-29T17:10:05.414Z,51.67
2023-03-29T17:25:09.357Z,52.00
2023-03-29T17:40:26.861Z,52.90
2023-03-29T17:55:29.804Z,53.73
2023-03-29T18:10:32.924Z,54.77
2023-03-29T18:25:35.623Z,55.52
2023-03-29T18:40:38.754Z,55.96
2023-03-29T18:55:42.839Z,56.54
2023-03-29T19:10:45.906Z,57.47
2023-03-29T19:25:57.815Z,58.02
2023-03-29T19:41:15.524Z,59.18
2023-03-29T19:56:18.179Z,59.75
2023-03-29T20:11:23.297Z,60.12
2023-03-29T20:26:27.457Z,60.34
2023-03-29T20:41:31.232Z,60.81
2023-03-29T20:56:39.472Z,61.53
2023-03-29T21:11:43.098Z,61.87
2023-03-29T21:26:45.946Z,62.41
2023-03-29T21:41:48.508Z,62.76
2023-03-29T21:56:51.171Z,62.55
2023-03-29T22:11:53.750Z,63.03
2023-03-29T22:26:56.192Z,63.72
2023-03-29T22:41:58.818Z,63.96
2023-03-29T22:57:01.428Z,63.61
2023-03-29T23:12:04.228Z,63.86
2023-03-29T23:27:07.175Z,64.22
2023-03-29T23:42:10.260Z,64.77
2023-03-29T23:57:13.175Z,65.39
